Pongnae — 3FDZ8 — position and weather

sailwx.info

Track history (hours):
 
Tides and Currents Weather Stations Pressure Air Temp Water Temp Dewpoint Dewpoint Depression Visibility Wind Speed Wind Dir Waves Ship Positions

Pongnae

Operator: V Ships Leisure SAM

Last reported at 2016-Sep-15 01:07 UTC. Time now 2016-Sep-28 12:02 UTC.
Position N 22°18' E 114°13'.
Warning: this ship's position is 13 days out of date.

Length 171 m; draft 6.6 m.

Type: Passenger vessel. MMSI: 353669000.

Date/timePositionNaut miles runAvg speedWind from/ knotsBaromVisibWave heightAir tempDewpointWater temp
2016-Sep-15 01:07N 22°18' E 114°13'  
2016-Sep-11 13:32N 22°10' E 114°19'9 8.8
2016-Sep-11 12:33N 22°17' E 114°14'1 0.9
2016-Sep-11 11:21N 22°18' E 114°13'0 0.0
2016-Sep-11 10:24N 22°18' E 114°13'0 0.0
2016-Sep-11 08:30N 22°18' E 114°13'0 0.0
2016-Sep-11 07:27N 22°18' E 114°13'0 0.0
2016-Sep-11 02:27N 22°18' E 114°13'0 0.0
2016-Sep-11 01:23N 22°18' E 114°13'0 0.0
2016-Sep-11 00:32N 22°18' E 114°13'1 1.3
2016-Sep-10 23:33N 22°17' E 114°14'8 8.0
2016-Sep-10 22:33N 22°11' E 114°20'3 0.3
2016-Sep-10 13:33N 22°08' E 114°20'1111.2
2016-Sep-10 12:33N 22°18' E 114°13'0 0.2
2016-Sep-10 11:33N 22°18' E 114°13'0 0.0
2016-Sep-10 10:33N 22°18' E 114°13'0 0.0
2016-Sep-10 09:30N 22°18' E 114°13'0 0.0
2016-Sep-10 08:33N 22°18' E 114°13'0 0.0
2016-Sep-10 07:33N 22°18' E 114°13'0 0.0
2016-Sep-10 06:24N 22°18' E 114°13'0 0.1
2016-Sep-10 05:33N 22°18' E 114°13'7 6.8
2016-Sep-10 04:32N 22°18' E 114°06'  
Track history (hours):
 
Tides and Currents Weather Stations Pressure Air Temp Water Temp Dewpoint Dewpoint Depression Visibility Wind Speed Wind Dir Waves Ship Positions

Pongnae

Operator: V Ships Leisure SAM

Last reported at 2016-Sep-15 01:07 UTC. Time now 2016-Sep-28 12:02 UTC.
Position N 22°18' E 114°13'.
Warning: this ship's position is 13 days out of date.

Length 171 m; draft 6.6 m.

Type: Passenger vessel. MMSI: 353669000.

Date/timePositionNaut miles runAvg speedWind from/ knotsBaromVisibWave heightAir tempDewpointWater temp
2016-Sep-15 01:07N 22°18' E 114°13'  
2016-Sep-11 13:32N 22°10' E 114°19'9 8.8
2016-Sep-11 12:33N 22°17' E 114°14'1 0.9
2016-Sep-11 11:21N 22°18' E 114°13'0 0.0
2016-Sep-11 10:24N 22°18' E 114°13'0 0.0
2016-Sep-11 08:30N 22°18' E 114°13'0 0.0
2016-Sep-11 07:27N 22°18' E 114°13'0 0.0
2016-Sep-11 02:27N 22°18' E 114°13'0 0.0
2016-Sep-11 01:23N 22°18' E 114°13'0 0.0
2016-Sep-11 00:32N 22°18' E 114°13'1 1.3
2016-Sep-10 23:33N 22°17' E 114°14'8 8.0
2016-Sep-10 22:33N 22°11' E 114°20'3 0.3
2016-Sep-10 13:33N 22°08' E 114°20'1111.2
2016-Sep-10 12:33N 22°18' E 114°13'0 0.2
2016-Sep-10 11:33N 22°18' E 114°13'0 0.0
2016-Sep-10 10:33N 22°18' E 114°13'0 0.0
2016-Sep-10 09:30N 22°18' E 114°13'0 0.0
2016-Sep-10 08:33N 22°18' E 114°13'0 0.0
2016-Sep-10 07:33N 22°18' E 114°13'0 0.0
2016-Sep-10 06:24N 22°18' E 114°13'0 0.1
2016-Sep-10 05:33N 22°18' E 114°13'7 6.8
2016-Sep-10 04:32N 22°18' E 114°06'  

Dump ship's entire track history